Time;durP1;ratioP1;P1;durP2;ratioP2;P2;SDS_P1;SDS_P2;PMS_P1;PMS_P2;Temp;Humidity;BMP_temperature;BMP_pressure;BME280_temperature;BME280_humidity;BME280_pressure;Samples;Min_cycle;Max_cycle;Signal;HPM_P1;HPM_P2
2022/10/20 00:00:27;;;;;;;;;14.67;11.67;;;;;18.30;100.00;100928.72;4997754;28;66970;-71
2022/10/20 00:02:52;;;;;;;;;12.00;12.00;;;;;18.30;100.00;100931.41;5016701;28;52649;-71
2022/10/20 00:05:17;;;;;;;;;11.33;11.33;;;;;18.30;100.00;100933.19;5015844;28;66122;-71
2022/10/20 00:07:43;;;;;;;;;15.00;14.00;;;;;18.30;100.00;100935.88;5016796;28;45296;-71
2022/10/20 00:10:08;;;;;;;;;14.33;14.33;;;;;18.30;100.00;100922.50;4998703;28;46492;-71
2022/10/20 00:12:34;;;;;;;;;15.33;15.33;;;;;18.28;100.00;100914.53;5015989;28;56536;-71
2022/10/20 00:14:59;;;;;;;;;12.33;12.33;;;;;18.25;100.00;100916.34;5016253;28;45463;-70
2022/10/20 00:17:24;;;;;;;;;19.00;14.00;;;;;18.25;100.00;100914.56;5014040;28;63194;-70
2022/10/20 00:19:50;;;;;;;;;12.67;11.67;;;;;18.22;100.00;100917.31;5015535;28;68553;-72
2022/10/20 00:22:15;;;;;;;;;15.33;14.00;;;;;18.23;100.00;100920.88;5016521;28;45424;-71
2022/10/20 00:24:41;;;;;;;;;12.00;12.00;;;;;18.20;100.00;100910.22;5016608;28;45535;-70
2022/10/20 00:27:06;;;;;;;;;15.00;15.00;;;;;18.18;100.00;100909.38;5014511;28;45471;-71
2022/10/20 00:29:32;;;;;;;;;15.67;14.00;;;;;18.17;100.00;100900.47;5014844;28;69686;-71
2022/10/20 00:31:57;;;;;;;;;15.00;14.33;;;;;18.14;100.00;100897.84;5020064;28;61594;-72
2022/10/20 00:34:22;;;;;;;;;15.00;13.67;;;;;18.14;100.00;100905.88;5021270;28;56974;-70
2022/10/20 00:36:48;;;;;;;;;18.33;15.00;;;;;18.12;100.00;100902.38;5015357;28;54427;-70
2022/10/20 00:39:13;;;;;;;;;13.00;12.00;;;;;18.10;100.00;100893.47;5015456;28;66970;-71
2022/10/20 00:41:39;;;;;;;;;14.67;13.33;;;;;18.06;100.00;100892.66;5014992;28;68717;-71
2022/10/20 00:44:41;;;;;;;;;15.33;13.00;;;;;18.08;100.00;100894.44;5011486;28;60106;-71
2022/10/20 00:47:16;;;;;;;;;12.67;12.67;;;;;18.04;100.00;100891.81;5015208;28;46664;-72
2022/10/20 00:49:41;;;;;;;;;12.33;12.33;;;;;18.01;100.00;100885.66;5016069;28;45447;-71
2022/10/20 00:52:07;;;;;;;;;15.00;14.00;;;;;18.01;100.00;100875.84;5015092;28;65184;-71
2022/10/20 00:54:33;;;;;;;;;17.33;13.00;;;;;18.00;100.00;100879.44;4998511;28;45403;-70
2022/10/20 00:56:59;;;;;;;;;15.33;15.33;;;;;17.99;100.00;100876.75;5015769;28;45564;-71
2022/10/20 00:59:30;;;;;;;;;16.00;13.67;;;;;18.00;100.00;100878.53;5013619;28;68445;-71
2022/10/20 01:01:56;;;;;;;;;13.00;12.33;;;;;18.00;100.00;100875.84;4998200;28;45404;-71
2022/10/20 01:04:22;;;;;;;;;11.00;11.00;;;;;18.01;100.00;100877.63;5015012;28;55507;-72
2022/10/20 01:06:48;;;;;;;;;15.00;14.00;;;;;18.01;100.00;100874.97;5015978;28;45357;-72
2022/10/20 01:09:13;;;;;;;;;13.00;13.00;;;;;18.02;100.00;100868.72;4997902;28;45631;-71
2022/10/20 01:11:47;;;;;;;;;15.33;14.00;;;;;18.02;100.00;100858.91;5014449;28;67718;-71
2022/10/20 01:14:15;;;;;;;;;13.00;11.00;;;;;18.04;100.00;100861.53;5015801;28;45337;-71
2022/10/20 01:16:56;;;;;;;;;13.67;11.67;;;;;18.04;100.00;100862.41;5015985;28;45643;-71
2022/10/20 01:19:31;;;;;;;;;12.33;12.33;;;;;18.04;100.00;100858.84;5015321;28;46163;-71
2022/10/20 01:22:34;;;;;;;;;15.00;13.00;;;;;18.04;100.00;100866.88;5015760;28;45380;-71
2022/10/20 01:25:11;;;;;;;;;11.33;11.00;;;;;18.03;100.00;100862.44;5006896;28;45388;-72
2022/10/20 01:27:42;;;;;;;;;16.67;11.00;;;;;18.04;100.00;100867.75;5015510;28;45287;-71
2022/10/20 01:30:16;;;;;;;;;16.67;13.33;;;;;18.03;100.00;100871.34;4992384;28;45690;-72
2022/10/20 01:33:10;;;;;;;;;11.00;11.00;;;;;18.06;100.00;100883.78;5022679;28;45415;-71
2022/10/20 01:35:59;;;;;;;;;14.67;12.00;;;;;18.04;100.00;100889.13;5011057;28;45665;-71
2022/10/20 01:38:50;;;;;;;;;13.00;12.33;;;;;18.05;100.00;100888.22;5001399;28;45463;-71
2022/10/20 01:41:38;;;;;;;;;13.00;12.00;;;;;18.05;100.00;100868.63;5017513;28;45327;-71
2022/10/20 01:44:06;;;;;;;;;12.67;12.67;;;;;18.06;100.00;100865.94;5013653;28;45477;-71
2022/10/20 01:46:33;;;;;;;;;11.00;9.67;;;;;18.08;100.00;100881.94;5012456;28;45319;-71
2022/10/20 01:49:00;;;;;;;;;12.33;11.33;;;;;18.09;100.00;100890.84;5000199;28;59988;-70
2022/10/20 01:51:25;;;;;;;;;12.33;11.00;;;;;18.10;100.00;100904.16;5001018;28;46774;-71
2022/10/20 01:53:51;;;;;;;;;13.33;12.00;;;;;18.11;100.00;100954.06;5017242;28;64693;-71
2022/10/20 01:56:26;;;;;;;;;14.33;12.33;;;;;18.13;100.00;100946.88;5018658;28;45512;-70
2022/10/20 01:59:03;;;;;;;;;9.67;9.67;;;;;18.18;100.00;100930.75;4984201;28;45571;-71
2022/10/20 02:01:58;;;;;;;;;13.00;10.00;;;;;18.20;100.00;100918.25;5018195;28;47492;-70
2022/10/20 02:04:34;;;;;;;;;10.33;10.33;;;;;18.19;100.00;100908.47;5018211;28;45472;-71
2022/10/20 02:07:17;;;;;;;;;9.00;9.00;;;;;18.24;100.00;100909.25;5000186;28;45227;-72
2022/10/20 02:09:47;;;;;;;;;11.00;11.00;;;;;18.25;100.00;100890.50;5010771;28;45364;-71
2022/10/20 02:12:23;;;;;;;;;12.00;10.00;;;;;18.29;100.00;100891.34;5017366;28;46035;-72
2022/10/20 02:14:49;;;;;;;;;13.00;11.33;;;;;18.30;100.00;100882.41;4994523;28;45408;-71
2022/10/20 02:17:15;;;;;;;;;13.33;11.00;;;;;18.34;100.00;100868.06;5000976;28;45373;-72
2022/10/20 02:19:43;;;;;;;;;10.33;10.33;;;;;18.36;100.00;100862.69;5016742;28;45435;-71
2022/10/20 02:22:10;;;;;;;;;11.67;10.33;;;;;18.38;100.00;100851.06;5018000;28;47361;-72
2022/10/20 02:24:37;;;;;;;;;9.67;9.67;;;;;18.40;100.00;100853.69;5000304;28;45376;-71
2022/10/20 02:27:21;;;;;;;;;11.00;11.00;;;;;18.45;100.00;100858.03;5018313;28;45254;-71
2022/10/20 02:29:52;;;;;;;;;10.00;10.00;;;;;18.47;100.00;100860.66;5000428;28;45476;-71
2022/10/20 02:32:18;;;;;;;;;10.00;9.00;;;;;18.48;100.00;100847.28;5007601;28;46386;-71
2022/10/20 02:34:43;;;;;;;;;8.67;8.67;;;;;18.52;100.00;100840.94;5001074;28;45536;-71
2022/10/20 02:37:09;;;;;;;;;10.33;8.00;;;;;18.55;100.00;100850.69;5018041;28;45392;-71
2022/10/20 02:39:34;;;;;;;;;11.33;9.33;;;;;18.59;100.00;100836.34;5018152;28;45443;-71
2022/10/20 02:42:00;;;;;;;;;8.33;8.33;;;;;18.60;100.00;100838.13;5016149;28;67836;-71
2022/10/20 02:44:25;;;;;;;;;8.67;6.33;;;;;18.65;100.00;100825.53;5014789;28;49435;-71
2022/10/20 02:46:50;;;;;;;;;6.33;6.33;;;;;18.68;100.00;100804.06;5017301;28;53173;-71
2022/10/20 02:49:16;;;;;;;;;6.00;5.33;;;;;18.71;100.00;100790.63;5017145;28;56641;-71
2022/10/20 02:51:41;;;;;;;;;10.33;7.67;;;;;18.73;100.00;100759.38;5017636;28;45728;-71
2022/10/20 02:54:06;;;;;;;;;6.00;5.33;;;;;18.76;100.00;100758.44;5016526;28;69499;-72
2022/10/20 02:56:32;;;;;;;;;7.00;6.67;;;;;18.78;100.00;100776.19;5017029;28;62116;-71
2022/10/20 02:58:57;;;;;;;;;5.67;2.67;;;;;18.79;100.00;100777.94;5016811;28;65085;-71
2022/10/20 03:01:24;;;;;;;;;9.33;5.33;;;;;18.79;100.00;100777.94;5017671;28;47396;-72
2022/10/20 03:03:49;;;;;;;;;5.00;4.67;;;;;18.80;100.00;100785.09;5020699;28;45337;-71
2022/10/20 03:06:15;;;;;;;;;8.67;5.67;;;;;18.81;100.00;100785.97;5017670;28;45254;-72
2022/10/20 03:08:40;;;;;;;;;5.00;3.67;;;;;18.83;100.00;100792.13;5000197;28;45303;-72
2022/10/20 03:11:06;;;;;;;;;8.00;6.00;;;;;18.82;100.00;100788.59;5017283;28;46224;-71
2022/10/20 03:13:31;;;;;;;;;5.33;3.00;;;;;18.84;100.00;100800.13;5017630;28;45431;-71
2022/10/20 03:15:57;;;;;;;;;3.00;3.00;;;;;18.87;100.00;100795.63;5017016;28;45744;-71
2022/10/20 03:18:22;;;;;;;;;7.33;4.00;;;;;18.87;100.00;100795.63;5017592;28;45304;-71
2022/10/20 03:20:52;;;;;;;;;5.33;3.67;;;;;18.86;100.00;100789.41;5016505;28;66080;-72
2022/10/20 03:23:17;;;;;;;;;5.00;5.00;;;;;18.87;100.00;100793.84;5011246;28;45258;-71
2022/10/20 03:25:43;;;;;;;;;3.00;3.00;;;;;18.87;100.00;100777.78;5017586;28;45269;-71
2022/10/20 03:28:08;;;;;;;;;4.67;4.67;;;;;18.87;100.00;100764.41;5016529;28;55909;-71
2022/10/20 03:30:33;;;;;;;;;5.33;3.33;;;;;18.87;100.00;100766.22;5016346;28;68175;-70
2022/10/20 03:32:59;;;;;;;;;6.33;3.67;;;;;18.86;100.00;100783.19;5018463;28;45407;-72
2022/10/20 03:35:24;;;;;;;;;8.00;4.67;;;;;18.82;100.00;100785.91;5016198;28;58225;-71
2022/10/20 03:37:49;;;;;;;;;6.00;5.00;;;;;18.83;100.00;100795.69;5016397;28;59456;-71
2022/10/20 03:40:15;;;;;;;;;3.67;3.33;;;;;18.82;100.00;100798.41;5016063;28;67480;-71
2022/10/20 03:42:40;;;;;;;;;6.33;4.33;;;;;18.81;100.00;100802.00;5016547;28;53705;-71
2022/10/20 03:45:06;;;;;;;;;6.67;3.67;;;;;18.81;100.00;100802.00;5003817;28;65390;-71
2022/10/20 03:47:31;;;;;;;;;3.67;3.67;;;;;18.78;100.00;100816.31;5016920;28;45572;-71
2022/10/20 03:49:56;;;;;;;;;6.00;6.00;;;;;18.78;100.00;100828.81;5016649;28;51114;-72
2022/10/20 03:52:22;;;;;;;;;5.33;3.67;;;;;18.77;100.00;100835.97;5014785;28;64379;-71
2022/10/20 03:54:47;;;;;;;;;10.67;5.00;;;;;18.76;100.00;100842.25;5016125;28;60958;-71
2022/10/20 03:57:12;;;;;;;;;7.67;5.67;;;;;18.73;100.00;100830.72;5016481;28;45187;-71
2022/10/20 03:59:38;;;;;;;;;4.00;4.00;;;;;18.70;100.00;100834.34;5015375;28;69517;-72
2022/10/20 04:02:03;;;;;;;;;6.67;4.00;;;;;18.71;100.00;100845.94;4997614;28;45366;-71
2022/10/20 04:04:29;;;;;;;;;7.00;7.00;;;;;18.67;100.00;100853.09;5016655;28;45365;-71
2022/10/20 04:06:54;;;;;;;;;7.00;7.00;;;;;18.64;100.00;100853.16;5016042;28;61356;-72
2022/10/20 04:09:19;;;;;;;;;6.00;4.33;;;;;18.63;100.00;100834.47;5015702;28;68626;-71
2022/10/20 04:11:45;;;;;;;;;5.00;4.33;;;;;18.61;100.00;100822.94;5016396;28;45889;-71
2022/10/20 04:14:10;;;;;;;;;5.67;5.67;;;;;18.59;100.00;100820.31;5016783;28;45514;-71
2022/10/20 04:16:35;;;;;;;;;9.00;5.00;;;;;18.57;100.00;100806.94;5016523;28;47873;-70
2022/10/20 04:19:01;;;;;;;;;5.67;5.33;;;;;18.54;100.00;100784.78;5016514;28;46475;-72
2022/10/20 04:21:26;;;;;;;;;6.33;3.00;;;;;18.53;100.00;100780.31;5016001;28;45439;-72
2022/10/20 04:23:52;;;;;;;;;6.00;5.00;;;;;18.51;100.00;100799.06;5015428;28;60241;-71
2022/10/20 04:26:17;;;;;;;;;4.33;4.33;;;;;18.50;100.00;100802.66;5016211;28;45550;-71
2022/10/20 04:28:42;;;;;;;;;7.00;5.67;;;;;18.49;100.00;100795.56;5015736;28;66255;-72
2022/10/20 04:31:08;;;;;;;;;8.00;5.33;;;;;18.45;100.00;100785.84;5016283;28;45370;-71
2022/10/20 04:33:34;;;;;;;;;6.33;5.33;;;;;18.48;100.00;100800.91;5024622;28;45328;-71
2022/10/20 04:36:04;;;;;;;;;7.00;5.00;;;;;18.45;100.00;100809.03;5016307;28;45618;-71
2022/10/20 04:38:30;;;;;;;;;9.00;8.67;;;;;18.45;100.00;100817.94;5015753;28;46116;-71
2022/10/20 04:40:57;;;;;;;;;8.00;6.33;;;;;18.42;100.00;100811.75;5016303;28;45329;-71
2022/10/20 04:43:23;;;;;;;;;5.67;5.67;;;;;18.41;100.00;100818.03;5016249;28;45321;-71
2022/10/20 04:45:48;;;;;;;;;10.00;9.00;;;;;18.41;100.00;100801.97;5013509;28;45517;-72
2022/10/20 04:48:13;;;;;;;;;8.67;7.00;;;;;18.38;100.00;100800.28;5013961;28;69484;-72
2022/10/20 04:50:39;;;;;;;;;5.67;4.33;;;;;18.39;100.00;100807.38;5013564;28;61008;-72
2022/10/20 04:53:04;;;;;;;;;6.00;6.00;;;;;18.38;100.00;100808.28;5014517;28;59068;-72
2022/10/20 04:55:29;;;;;;;;;10.00;7.00;;;;;18.38;100.00;100796.72;5014721;28;60930;-71
2022/10/20 04:57:55;;;;;;;;;6.33;6.33;;;;;18.38;100.00;100783.34;5012806;28;64038;-72
2022/10/20 05:00:20;;;;;;;;;5.67;5.67;;;;;18.35;100.00;100784.28;5015691;28;45277;-72
2022/10/20 05:02:45;;;;;;;;;7.00;6.00;;;;;18.29;100.00;100787.09;5014913;28;60941;-73
2022/10/20 05:05:11;;;;;;;;;5.00;4.00;;;;;18.32;100.00;100790.59;5017440;28;59751;-73
2022/10/20 05:07:36;;;;;;;;;9.00;4.33;;;;;18.30;100.00;100803.09;5017878;28;66476;-73
2022/10/20 05:10:02;;;;;;;;;2.67;2.67;;;;;18.31;100.00;100802.16;5018326;28;66313;-71
2022/10/20 05:12:27;;;;;;;;;5.00;4.00;;;;;18.33;100.00;100808.38;5018381;28;45393;-72
2022/10/20 05:14:52;;;;;;;;;3.00;3.00;;;;;18.33;100.00;100807.50;5018057;28;62476;-71
2022/10/20 05:17:18;;;;;;;;;5.00;3.00;;;;;18.35;100.00;100816.38;5017888;28;61752;-71
2022/10/20 05:19:44;;;;;;;;;3.33;3.33;;;;;18.37;100.00;100813.66;5017839;28;62777;-71
2022/10/20 05:22:10;;;;;;;;;8.67;4.00;;;;;18.37;100.00;100810.97;5018538;28;45190;-71
2022/10/20 05:24:35;;;;;;;;;3.00;3.00;;;;;18.38;100.00;100813.63;5016632;28;45432;-72
2022/10/20 05:27:00;;;;;;;;;4.67;4.67;;;;;18.39;100.00;100828.75;5129287;22;47292;-72
2022/10/20 05:29:26;;;;;;;;;3.00;3.00;;;;;18.37;100.00;100819.00;5018014;28;55582;-71
2022/10/20 05:31:51;;;;;;;;;4.33;4.33;;;;;18.35;100.00;100824.38;5022075;28;52022;-72
2022/10/20 05:34:16;;;;;;;;;4.00;2.33;;;;;18.35;100.00;100834.19;5023046;28;45459;-71
2022/10/20 05:36:42;;;;;;;;;3.33;2.67;;;;;18.32;100.00;100817.31;5016795;28;59806;-71
2022/10/20 05:39:08;;;;;;;;;4.00;3.00;;;;;18.32;100.00;100825.34;5012005;28;67623;-71
2022/10/20 05:41:34;;;;;;;;;4.67;2.33;;;;;18.31;100.00;100828.03;5016167;28;45381;-71
2022/10/20 05:44:01;;;;;;;;;4.00;4.00;;;;;18.30;100.00;100823.59;5009132;28;45419;-70
2022/10/20 05:46:29;;;;;;;;;3.33;3.33;;;;;18.31;100.00;100823.56;5031103;28;46602;-71
2022/10/20 05:48:57;;;;;;;;;7.00;4.00;;;;;18.27;100.00;100819.22;5015842;28;45507;-70
2022/10/20 05:51:25;;;;;;;;;5.33;5.00;;;;;18.28;100.00;100806.72;5017316;28;45452;-71
2022/10/20 05:53:51;;;;;;;;;7.00;4.67;;;;;18.24;100.00;100800.56;5018193;28;45407;-71
2022/10/20 05:56:19;;;;;;;;;7.00;5.67;;;;;18.24;100.00;100803.22;5016988;28;46465;-72
2022/10/20 05:58:44;;;;;;;;;8.67;6.00;;;;;18.23;100.00;100792.56;5017009;28;45474;-72
2022/10/20 06:01:15;;;;;;;;;4.00;4.00;;;;;18.22;100.00;100799.72;5018265;28;45297;-71
2022/10/20 06:03:41;;;;;;;;;4.67;4.67;;;;;18.20;100.00;100793.50;5017622;28;45265;-71
2022/10/20 06:06:06;;;;;;;;;6.00;6.00;;;;;18.17;100.00;100772.19;5017623;28;46484;-71
2022/10/20 06:08:32;;;;;;;;;5.33;5.33;;;;;18.17;100.00;100745.47;5018236;28;45463;-71
2022/10/20 06:11:05;;;;;;;;;9.00;4.00;;;;;18.16;100.00;100703.59;5017676;28;45595;-73
2022/10/20 06:13:31;;;;;;;;;4.00;4.00;;;;;18.17;100.00;100699.16;5017979;28;45390;-70
2022/10/20 06:16:07;;;;;;;;;6.00;4.00;;;;;18.13;100.00;100701.03;5017754;28;46464;-71
2022/10/20 06:18:33;;;;;;;;;8.33;5.67;;;;;18.09;100.00;100699.31;5017692;28;45408;-72
2022/10/20 06:21:04;;;;;;;;;5.33;5.33;;;;;18.08;100.00;100702.91;5016931;28;45338;-71
2022/10/20 06:23:29;;;;;;;;;6.00;4.33;;;;;18.06;100.00;100691.41;5016076;28;45486;-71
2022/10/20 06:25:54;;;;;;;;;5.67;5.00;;;;;18.04;100.00;100688.72;5015545;28;68873;-72
2022/10/20 06:28:20;;;;;;;;;5.67;5.67;;;;;18.06;100.00;100705.63;5018660;28;45348;-71
2022/10/20 06:30:46;;;;;;;;;6.33;5.00;;;;;18.03;100.00;100691.44;5016538;28;54281;-71
2022/10/20 06:33:13;;;;;;;;;8.33;5.00;;;;;18.03;100.00;100695.00;5014250;28;45588;-71
2022/10/20 06:35:39;;;;;;;;;7.67;4.00;;;;;17.98;100.00;100685.31;5014889;28;45743;-71
2022/10/20 06:38:04;;;;;;;;;7.00;4.00;;;;;17.98;100.00;100685.31;5017473;28;45595;-71
2022/10/20 06:40:29;;;;;;;;;6.33;4.67;;;;;17.98;100.00;100688.88;5014763;28;63580;-71
2022/10/20 06:42:55;;;;;;;;;7.33;5.00;;;;;17.96;100.00;100689.84;5032249;28;50989;-71
2022/10/20 06:45:20;;;;;;;;;5.00;5.00;;;;;17.94;100.00;100716.56;5021667;28;70259;-71
2022/10/20 06:47:45;;;;;;;;;8.00;5.00;;;;;17.91;100.00;100721.97;5017452;28;45336;-72
2022/10/20 06:50:11;;;;;;;;;6.67;4.00;;;;;17.89;100.00;100744.28;5017328;28;60515;-72
2022/10/20 06:52:36;;;;;;;;;5.00;5.00;;;;;17.85;100.00;100754.16;5014397;28;59406;-71
2022/10/20 06:55:01;;;;;;;;;2.67;1.67;;;;;17.86;100.00;100771.94;5022928;28;66900;-72
2022/10/20 06:57:30;;;;;;;;;6.67;5.00;;;;;17.85;100.00;100780.00;5014151;28;45415;-72
2022/10/20 06:59:55;;;;;;;;;6.00;4.00;;;;;17.85;100.00;100791.56;5016656;28;45477;-71
2022/10/20 07:02:21;;;;;;;;;7.33;5.67;;;;;17.85;100.00;100801.38;5015832;28;61356;-71
2022/10/20 07:04:48;;;;;;;;;7.00;4.00;;;;;17.86;100.00;100798.66;5015886;28;46442;-72
2022/10/20 07:07:14;;;;;;;;;5.00;4.00;;;;;17.85;100.00;100796.91;5016613;28;45344;-71
2022/10/20 07:09:39;;;;;;;;;5.00;5.00;;;;;17.85;100.00;100801.38;5015497;28;64736;-71
2022/10/20 07:12:04;;;;;;;;;4.00;4.00;;;;;17.85;100.00;100801.38;5016265;28;45384;-72
2022/10/20 07:14:30;;;;;;;;;7.33;4.33;;;;;17.85;100.00;100804.03;5015868;28;56235;-72
2022/10/20 07:16:55;;;;;;;;;8.00;5.00;;;;;17.84;100.00;100811.16;5015818;28;62581;-72
2022/10/20 07:19:20;;;;;;;;;5.00;4.33;;;;;17.81;100.00;100805.88;5008053;28;46706;-71
2022/10/20 07:21:46;;;;;;;;;4.00;4.00;;;;;17.79;100.00;100815.72;5016639;28;45442;-74
2022/10/20 07:24:12;;;;;;;;;6.00;3.67;;;;;17.75;100.00;100812.22;5015461;28;46548;-72
2022/10/20 07:26:39;;;;;;;;;4.00;4.00;;;;;17.74;100.00;100809.59;5018441;28;45470;-72
2022/10/20 07:29:04;;;;;;;;;6.00;4.67;;;;;17.69;100.00;100806.97;5016103;28;45604;-72
2022/10/20 07:31:32;;;;;;;;;4.33;4.33;;;;;17.69;100.00;100806.09;5017205;28;45463;-71
2022/10/20 07:33:58;;;;;;;;;6.00;4.67;;;;;17.67;100.00;100813.22;5016081;28;46138;-72
2022/10/20 07:36:26;;;;;;;;;3.00;3.00;;;;;17.66;100.00;100816.81;5015671;28;45249;-72
2022/10/20 07:38:53;;;;;;;;;4.00;4.00;;;;;17.66;100.00;100827.50;5015717;28;45542;-71
2022/10/20 07:41:19;;;;;;;;;5.67;5.67;;;;;17.64;100.00;100827.53;5015213;28;45660;-71
2022/10/20 07:43:45;;;;;;;;;4.33;4.33;;;;;17.62;100.00;100809.75;5013399;28;46429;-72
2022/10/20 07:46:11;;;;;;;;;8.00;3.67;;;;;17.64;100.00;100814.19;5011858;28;69967;-72
2022/10/20 07:48:37;;;;;;;;;6.00;2.00;;;;;17.65;100.00;100809.72;5016402;28;45528;-72
2022/10/20 07:51:20;;;;;;;;;4.67;3.67;;;;;17.67;100.00;100816.78;5015751;28;45448;-72
2022/10/20 07:53:47;;;;;;;;;5.00;3.33;;;;;17.69;100.00;100822.09;5015039;28;45605;-71
2022/10/20 07:56:13;;;;;;;;;6.67;4.33;;;;;17.68;100.00;100826.53;5014972;28;45552;-71
2022/10/20 07:58:38;;;;;;;;;5.00;3.67;;;;;17.71;100.00;100814.94;5016063;28;45293;-71
2022/10/20 08:01:04;;;;;;;;;4.00;4.00;;;;;17.70;100.00;100814.06;5014845;28;45341;-72
2022/10/20 08:03:30;;;;;;;;;5.67;3.67;;;;;17.71;100.00;100820.28;5015457;28;45617;-72
2022/10/20 08:05:55;;;;;;;;;6.00;3.33;;;;;17.72;100.00;100816.69;5014346;28;64359;-71
2022/10/20 08:08:21;;;;;;;;;2.67;2.67;;;;;17.73;100.00;100803.34;5015749;28;45502;-72
2022/10/20 08:10:46;;;;;;;;;4.00;3.00;;;;;17.80;100.00;100805.00;5015509;28;45406;-72
2022/10/20 08:13:11;;;;;;;;;5.00;3.33;;;;;17.87;100.00;100805.75;5015399;28;45707;-71
2022/10/20 08:15:37;;;;;;;;;3.33;3.33;;;;;17.93;100.00;100812.78;5014771;28;66015;-71
2022/10/20 08:18:03;;;;;;;;;3.33;3.00;;;;;17.98;100.00;100797.53;5014298;28;58662;-72
2022/10/20 08:20:28;;;;;;;;;7.33;4.00;;;;;18.04;100.00;100797.41;5014874;28;46424;-72
2022/10/20 08:22:53;;;;;;;;;6.67;4.33;;;;;18.12;100.00;100795.47;5015356;28;46380;-71
2022/10/20 08:25:19;;;;;;;;;5.00;4.00;;;;;18.21;100.00;100808.63;5014984;28;57133;-72
2022/10/20 08:27:44;;;;;;;;;5.00;4.00;;;;;18.30;100.00;100807.56;5019794;28;58858;-72
2022/10/20 08:30:09;;;;;;;;;6.00;4.00;;;;;18.40;100.00;100810.91;5014497;28;62596;-71
2022/10/20 08:32:35;;;;;;;;;4.33;4.33;;;;;18.46;100.00;100806.31;5025033;28;46909;-72
2022/10/20 08:35:00;;;;;;;;;6.00;3.33;;;;;18.54;100.00;100804.38;5013657;28;67547;-71
2022/10/20 08:37:28;;;;;;;;;5.00;5.00;;;;;18.61;100.00;100805.09;5014177;28;64068;-72
2022/10/20 08:39:54;;;;;;;;;4.33;3.33;;;;;18.68;100.00;100808.53;5015213;28;45624;-71
2022/10/20 08:42:19;;;;;;;;;4.67;3.00;;;;;18.75;100.00;100818.19;5017387;28;64143;-71
2022/10/20 08:44:45;;;;;;;;;4.33;3.33;;;;;18.79;100.00;100815.41;5013331;28;58165;-72
2022/10/20 08:47:25;;;;;;;;;3.33;3.33;;;;;18.83;100.00;100814.41;5018075;28;45467;-72
2022/10/20 08:49:50;;;;;;;;;5.00;4.67;;;;;18.92;100.00;100817.81;5016308;28;45281;-72
2022/10/20 08:52:16;;;;;;;;;4.33;4.00;;;;;18.95;100.00;100809.69;5017533;28;60949;-71
2022/10/20 08:54:42;;;;;;;;;3.33;3.33;;;;;19.01;100.00;100820.25;5015743;28;68240;-71
2022/10/20 08:57:21;;;;;;;;;4.33;3.33;;;;;19.04;100.00;100833.56;5018681;28;45497;-71
2022/10/20 08:59:50;;;;;;;;;4.00;4.00;;;;;19.07;100.00;100820.13;5017168;28;45529;-72
2022/10/20 09:02:16;;;;;;;;;5.33;2.67;;;;;19.09;100.00;100812.94;5013525;28;46882;-71
2022/10/20 09:04:48;;;;;;;;;4.00;2.00;;;;;19.05;100.00;100811.22;5018990;28;45308;-72
2022/10/20 09:07:25;;;;;;;;;2.00;2.00;;;;;18.95;100.00;100810.56;5016660;28;45322;-72
2022/10/20 09:09:51;;;;;;;;;3.00;3.00;;;;;18.87;100.00;100817.03;5017692;28;45502;-72
2022/10/20 09:12:17;;;;;;;;;2.00;2.00;;;;;18.78;100.00;100812.78;4998668;28;46499;-73
2022/10/20 09:14:43;;;;;;;;;4.67;3.00;;;;;18.74;100.00;100808.41;5018181;28;45296;-73
2022/10/20 09:17:15;;;;;;;;;7.00;4.67;;;;;18.72;100.00;100824.50;5016492;28;61256;-73
2022/10/20 09:19:44;;;;;;;;;4.00;2.33;;;;;18.70;100.00;100812.97;5033590;28;45540;-73
2022/10/20 09:22:10;;;;;;;;;3.67;3.67;;;;;18.69;100.00;100821.88;5018184;28;46580;-71
2022/10/20 09:24:36;;;;;;;;;2.00;0.67;;;;;18.69;100.00;100808.50;5015293;28;68836;-72
2022/10/20 09:27:18;;;;;;;;;4.33;4.33;;;;;18.71;100.00;100822.72;5019886;28;46299;-72
2022/10/20 09:29:44;;;;;;;;;4.00;2.00;;;;;18.72;100.00;100821.81;5017129;28;45453;-72
2022/10/20 09:32:33;;;;;;;;;4.00;3.33;;;;;18.76;100.00;100807.47;5019901;28;45411;-72
2022/10/20 09:35:13;;;;;;;;;2.67;2.00;;;;;18.83;100.00;100816.22;5016163;28;45523;-72
2022/10/20 09:37:39;;;;;;;;;3.33;3.00;;;;;18.84;100.00;100805.47;5010457;28;45383;-72
2022/10/20 09:40:15;;;;;;;;;2.00;2.00;;;;;18.89;100.00;100816.06;5016589;28;62598;-72
2022/10/20 09:42:47;;;;;;;;;4.00;3.67;;;;;18.91;100.00;100803.56;5015585;28;47401;-73
2022/10/20 09:45:27;;;;;;;;;2.33;2.33;;;;;18.97;100.00;100824.81;5007791;28;45598;-73
2022/10/20 09:47:58;;;;;;;;;4.00;4.00;;;;;19.01;100.00;100805.06;5019947;28;45332;-72
2022/10/20 09:50:30;;;;;;;;;0.33;0.00;;;;;19.08;100.00;100808.50;5033525;28;45476;-71
2022/10/20 09:52:57;;;;;;;;;2.33;2.00;;;;;19.14;100.00;100810.13;5015772;28;45720;-74
2022/10/20 09:55:27;;;;;;;;;2.33;2.00;;;;;19.17;100.00;100799.34;5006812;28;46002;-73
2022/10/20 09:57:54;;;;;;;;;1.33;1.00;;;;;19.21;100.00;100804.59;5016575;28;45491;-74
2022/10/20 10:00:36;;;;;;;;;3.00;1.00;;;;;19.24;100.00;100791.13;5015958;28;45749;-73
2022/10/20 10:03:09;;;;;;;;;1.67;1.67;;;;;19.29;100.00;100802.59;5031592;28;46092;-74
2022/10/20 10:05:34;;;;;;;;;1.00;1.00;;;;;19.34;100.00;100803.38;5016373;28;45511;-73
2022/10/20 10:08:00;;;;;;;;;2.33;1.00;;;;;19.38;100.00;100801.47;5017475;28;45384;-72
2022/10/20 10:10:30;;;;;;;;;2.00;0.33;;;;;19.45;100.00;100803.09;5017221;28;45434;-72
2022/10/20 10:12:59;;;;;;;;;0.00;0.00;;;;;19.51;100.00;100804.72;4997481;28;47161;-71
2022/10/20 10:15:29;;;;;;;;;0.00;0.00;;;;;19.54;100.00;100800.16;5016130;28;45524;-73
2022/10/20 10:17:55;;;;;;;;;1.00;1.00;;;;;19.57;100.00;100794.72;5015906;28;45549;-73
2022/10/20 10:20:37;;;;;;;;;0.67;0.67;;;;;19.63;100.00;100794.59;5017635;28;45280;-74
2022/10/20 10:23:13;;;;;;;;;1.00;1.00;;;;;19.70;100.00;100787.25;5014693;28;45947;-72
2022/10/20 10:25:38;;;;;;;;;0.67;0.67;;;;;19.83;100.00;100785.13;5032788;28;45535;-71
2022/10/20 10:28:16;;;;;;;;;2.00;1.00;;;;;19.95;100.00;100786.59;5019978;28;45364;-72
2022/10/20 10:30:41;;;;;;;;;0.67;0.67;;;;;20.12;100.00;100789.66;4993582;28;45405;-73
2022/10/20 10:33:27;;;;;;;;;4.67;1.00;;;;;20.25;100.00;100782.16;5015694;28;70869;-72
2022/10/20 10:35:53;;;;;;;;;2.00;1.00;;;;;20.34;100.00;100777.38;5015249;28;45325;-71
2022/10/20 10:38:18;;;;;;;;;0.00;0.00;;;;;20.43;100.00;100776.22;5015988;28;45366;-72
2022/10/20 10:41:09;;;;;;;;;1.00;0.00;;;;;20.54;100.00;100774.13;5016087;28;62969;-72
2022/10/20 10:44:01;;;;;;;;;0.67;0.67;;;;;20.65;100.00;100790.75;5003814;28;46553;-74
2022/10/20 10:46:35;;;;;;;;;3.00;0.00;;;;;20.75;100.00;100766.31;4999346;28;45232;-72
2022/10/20 10:49:10;;;;;;;;;1.00;1.00;;;;;20.86;100.00;100772.22;5013732;28;45549;-72
2022/10/20 10:52:05;;;;;;;;;1.67;0.67;;;;;20.94;100.00;100775.53;5017701;28;45323;-72
2022/10/20 10:54:52;;;;;;;;;0.00;0.00;;;;;20.98;100.00;100750.34;5009713;28;45721;-72
2022/10/20 10:57:31;;;;;;;;;0.00;0.00;;;;;21.02;100.00;100743.06;5016760;28;46055;-72
2022/10/20 11:00:02;;;;;;;;;3.00;0.00;;;;;21.06;100.00;100745.59;5016095;28;45502;-72
2022/10/20 11:02:50;;;;;;;;;1.00;1.00;;;;;21.16;100.00;100759.59;5011317;28;45624;-72
2022/10/20 11:05:32;;;;;;;;;0.00;0.00;;;;;21.30;100.00;100746.59;5015738;28;45402;-72
2022/10/20 11:08:01;;;;;;;;;1.00;0.00;;;;;21.41;100.00;100752.50;5014215;28;45224;-72
2022/10/20 11:10:48;;;;;;;;;1.00;1.00;;;;;21.53;100.00;100734.19;5016787;28;45507;-73
2022/10/20 11:13:16;;;;;;;;;0.00;0.00;;;;;21.64;100.00;100727.47;5016201;28;47105;-72
2022/10/20 11:16:16;;;;;;;;;2.00;0.00;;;;;21.77;100.00;100737.78;5016589;28;46716;-72
2022/10/20 11:19:19;;;;;;;;;1.00;1.00;;;;;21.88;100.00;100722.13;5000208;28;45502;-72
2022/10/20 11:21:50;;;;;;;;;1.67;0.00;;;;;21.98;100.00;100726.22;5011130;28;45266;-72